createdAt,value
2018-09-24T00:00:43.783Z,9.40
2018-09-24T00:03:12.301Z,9.40
2018-09-24T00:05:40.978Z,9.30
2018-09-24T00:08:10.330Z,9.20
2018-09-24T00:10:38.847Z,9.20
2018-09-24T00:13:07.389Z,9.20
2018-09-24T00:15:35.851Z,9.20
2018-09-24T00:18:04.331Z,9.20
2018-09-24T00:20:33.599Z,9.30
2018-09-24T00:23:02.885Z,9.30
2018-09-24T00:25:32.020Z,9.20
2018-09-24T00:28:00.487Z,9.10
2018-09-24T00:30:29.069Z,9.10
2018-09-24T00:32:57.611Z,9.10
2018-09-24T00:35:26.043Z,9.20
2018-09-24T00:37:54.544Z,9.10
2018-09-24T00:40:23.181Z,9.10
2018-09-24T00:42:51.647Z,9.10
2018-09-24T00:45:20.175Z,9.10
2018-09-24T00:47:49.057Z,9.10
2018-09-24T00:50:17.486Z,9.10
2018-09-24T00:52:46.146Z,9.10
2018-09-24T00:55:14.659Z,9.20
2018-09-24T00:57:43.215Z,9.20
2018-09-24T01:00:11.775Z,9.20
2018-09-24T01:02:40.283Z,9.20
2018-09-24T01:05:08.835Z,9.10
2018-09-24T01:07:37.411Z,9.10
2018-09-24T01:10:05.938Z,9.10
2018-09-24T01:12:34.608Z,9.10
2018-09-24T01:15:03.272Z,9.10
2018-09-24T01:17:31.758Z,9.10
2018-09-24T01:20:00.442Z,9.10
2018-09-24T01:22:28.921Z,9.00
2018-09-24T01:24:57.463Z,9.00
2018-09-24T01:27:25.887Z,8.90
2018-09-24T01:29:54.401Z,8.90
2018-09-24T01:32:22.856Z,8.90
2018-09-24T01:34:51.991Z,8.90
2018-09-24T01:37:20.524Z,8.90
2018-09-24T01:39:49.015Z,8.90
2018-09-24T01:42:17.464Z,8.90
2018-09-24T01:44:45.965Z,8.90
2018-09-24T01:47:14.568Z,8.80
2018-09-24T01:49:43.369Z,8.80
2018-09-24T01:52:12.119Z,8.80
2018-09-24T01:54:40.811Z,8.80
2018-09-24T01:57:17.621Z,8.80
2018-09-24T01:59:52.463Z,8.90
2018-09-24T02:02:21.796Z,8.80
2018-09-24T02:04:51.212Z,8.90
2018-09-24T02:07:20.975Z,8.90
2018-09-24T02:09:49.506Z,8.90
2018-09-24T02:12:18.196Z,8.90
2018-09-24T02:14:46.815Z,8.90
2018-09-24T02:17:19.492Z,8.90
2018-09-24T02:19:48.990Z,8.90
2018-09-24T02:22:25.309Z,8.90
2018-09-24T02:24:54.883Z,9.00
2018-09-24T02:27:24.071Z,9.00
2018-09-24T02:29:52.679Z,9.00
2018-09-24T02:32:21.901Z,9.00
2018-09-24T02:34:52.209Z,8.90
2018-09-24T02:37:20.921Z,9.00
2018-09-24T02:39:49.336Z,8.90
2018-09-24T02:42:17.844Z,8.90
2018-09-24T02:44:48.111Z,8.90
2018-09-24T02:47:16.683Z,8.90
2018-09-24T02:49:45.312Z,8.90
2018-09-24T02:52:13.847Z,8.90
2018-09-24T02:54:42.343Z,8.90
2018-09-24T02:57:10.819Z,9.00
2018-09-24T02:59:44.654Z,9.00
2018-09-24T03:02:13.246Z,8.90
2018-09-24T03:04:41.752Z,9.00
2018-09-24T03:07:10.405Z,9.00
2018-09-24T03:09:38.871Z,9.00
2018-09-24T03:12:07.515Z,9.00
2018-09-24T03:14:36.235Z,9.00
2018-09-24T03:17:04.815Z,8.90
2018-09-24T03:19:33.442Z,8.90
2018-09-24T03:22:01.976Z,8.80
2018-09-24T03:24:30.510Z,8.80
2018-09-24T03:26:59.356Z,8.80
2018-09-24T03:29:27.840Z,8.80
2018-09-24T03:31:56.377Z,8.80
2018-09-24T03:34:25.018Z,8.70
2018-09-24T03:36:53.502Z,8.70
2018-09-24T03:39:22.304Z,8.70
2018-09-24T03:41:50.844Z,8.70
2018-09-24T03:44:19.319Z,8.70
2018-09-24T03:46:47.954Z,8.70
2018-09-24T03:49:16.458Z,8.70
2018-09-24T03:51:44.981Z,8.70
2018-09-24T03:54:13.712Z,8.70
2018-09-24T03:56:42.218Z,8.70
2018-09-24T03:59:10.879Z,8.60
2018-09-24T04:01:39.359Z,8.60
2018-09-24T04:04:14.251Z,8.60
2018-09-24T04:06:48.169Z,8.60
2018-09-24T04:09:21.995Z,8.60
2018-09-24T04:11:56.267Z,8.50
2018-09-24T04:14:29.991Z,8.50
2018-09-24T04:17:03.952Z,8.50
2018-09-24T04:19:37.873Z,8.50
2018-09-24T04:22:12.093Z,8.40
2018-09-24T04:24:46.027Z,8.40
2018-09-24T04:27:20.045Z,8.40
2018-09-24T04:29:53.960Z,8.40
2018-09-24T04:32:27.584Z,8.40
2018-09-24T04:35:01.559Z,8.40
2018-09-24T04:37:35.406Z,8.40
2018-09-24T04:40:09.370Z,8.30
2018-09-24T04:42:43.125Z,8.40
2018-09-24T04:45:17.603Z,8.40
2018-09-24T04:47:51.431Z,8.40
2018-09-24T04:50:25.254Z,8.40
2018-09-24T04:52:59.207Z,8.30
2018-09-24T04:55:33.261Z,8.30
2018-09-24T04:58:06.933Z,8.30
2018-09-24T05:00:40.756Z,8.20
2018-09-24T05:03:14.499Z,8.30
2018-09-24T05:05:48.337Z,8.30
2018-09-24T05:08:22.421Z,8.30
2018-09-24T05:10:56.155Z,8.30
2018-09-24T05:13:29.903Z,8.30
2018-09-24T05:16:03.788Z,8.30
2018-09-24T05:18:37.524Z,8.30
2018-09-24T05:21:11.372Z,8.30
2018-09-24T05:23:45.053Z,8.30
2018-09-24T05:26:18.926Z,8.20
2018-09-24T05:28:53.037Z,8.30
2018-09-24T05:31:26.932Z,8.20
2018-09-24T05:34:00.700Z,8.20
2018-09-24T05:36:34.455Z,8.20
2018-09-24T05:39:08.510Z,8.20
2018-09-24T05:41:43.170Z,8.20
2018-09-24T05:44:17.270Z,8.20
2018-09-24T05:46:51.149Z,8.30
2018-09-24T05:49:24.838Z,8.40
2018-09-24T05:51:58.761Z,8.40
2018-09-24T05:54:32.563Z,8.30
2018-09-24T05:57:06.224Z,8.30
2018-09-24T05:59:40.004Z,8.30
2018-09-24T06:02:13.721Z,8.30
2018-09-24T06:04:47.408Z,8.30
2018-09-24T06:07:21.377Z,8.30
2018-09-24T06:09:55.270Z,8.40
2018-09-24T06:12:29.255Z,8.40
2018-09-24T06:15:03.679Z,8.40
2018-09-24T06:17:37.411Z,8.50
2018-09-24T06:20:11.153Z,8.50
2018-09-24T06:22:45.067Z,8.50
2018-09-24T06:25:18.827Z,8.60
2018-09-24T06:27:52.761Z,8.70
2018-09-24T06:30:26.715Z,8.70
2018-09-24T06:33:00.596Z,8.70
2018-09-24T06:35:34.492Z,8.70
2018-09-24T06:38:08.164Z,8.80
2018-09-24T06:40:41.832Z,8.80
2018-09-24T06:43:15.772Z,8.90
2018-09-24T06:45:49.547Z,8.90
2018-09-24T06:48:23.361Z,9.00
2018-09-24T06:50:57.514Z,9.10
2018-09-24T06:53:31.972Z,9.20
2018-09-24T06:56:05.719Z,9.30
2018-09-24T06:58:39.621Z,9.30
2018-09-24T07:01:13.648Z,9.40
2018-09-24T07:03:47.275Z,9.40
2018-09-24T07:06:21.682Z,9.50
2018-09-24T07:08:55.485Z,9.50
2018-09-24T07:11:29.435Z,9.50
2018-09-24T07:14:03.187Z,9.60
2018-09-24T07:16:37.699Z,9.70
2018-09-24T07:19:12.023Z,9.80
2018-09-24T07:21:46.593Z,9.90
2018-09-24T07:24:20.596Z,10.00
2018-09-24T07:26:54.300Z,10.20
2018-09-24T07:29:28.364Z,10.40
2018-09-24T07:32:02.316Z,10.60
2018-09-24T07:34:36.222Z,10.80
2018-09-24T07:37:10.188Z,10.90
2018-09-24T07:39:44.091Z,11.00
2018-09-24T07:42:17.860Z,11.20
2018-09-24T07:44:51.699Z,11.40
2018-09-24T07:47:25.655Z,11.60
2018-09-24T07:49:59.458Z,11.90
2018-09-24T07:52:33.278Z,12.10
2018-09-24T07:55:07.139Z,12.30
2018-09-24T07:57:40.968Z,12.60
2018-09-24T08:00:14.721Z,12.80
2018-09-24T08:02:48.677Z,13.00
2018-09-24T08:05:22.393Z,13.00
2018-09-24T08:07:57.049Z,13.00
2018-09-24T08:10:30.795Z,13.30
2018-09-24T08:13:04.633Z,13.40
2018-09-24T08:15:38.633Z,13.50
2018-09-24T08:18:12.896Z,13.60
2018-09-24T08:20:46.706Z,13.60
2018-09-24T08:23:20.653Z,13.70
2018-09-24T08:25:54.503Z,13.90
2018-09-24T08:28:28.091Z,14.00
2018-09-24T08:31:01.996Z,14.00
2018-09-24T08:33:36.135Z,14.00
2018-09-24T08:36:10.092Z,14.00
2018-09-24T08:38:44.588Z,14.00
2018-09-24T08:41:18.485Z,14.10
2018-09-24T08:43:52.523Z,14.30
2018-09-24T08:46:26.375Z,14.30
2018-09-24T08:49:00.190Z,14.10
2018-09-24T08:51:34.111Z,13.90
2018-09-24T08:54:07.921Z,13.50
2018-09-24T08:56:41.787Z,13.40
2018-09-24T08:59:15.577Z,13.10
2018-09-24T09:01:49.487Z,13.00
2018-09-24T09:04:23.987Z,13.20
2018-09-24T09:06:57.942Z,13.50
2018-09-24T09:09:31.539Z,13.90
2018-09-24T09:12:05.291Z,14.10
2018-09-24T09:14:38.976Z,14.30
2018-09-24T09:17:12.808Z,14.40
2018-09-24T09:19:46.618Z,14.60
2018-09-24T09:22:20.489Z,14.70
2018-09-24T09:24:54.416Z,14.90
2018-09-24T09:27:28.235Z,15.00
2018-09-24T09:30:02.043Z,15.10
2018-09-24T09:32:35.776Z,15.10
2018-09-24T09:35:09.908Z,15.20
2018-09-24T09:37:43.528Z,15.30
2018-09-24T09:40:17.240Z,15.30
2018-09-24T09:42:51.082Z,15.40
2018-09-24T09:45:25.282Z,15.50
2018-09-24T09:47:59.064Z,15.60
2018-09-24T09:50:33.076Z,15.50
2018-09-24T09:53:06.988Z,15.40
2018-09-24T09:55:40.675Z,15.30
2018-09-24T09:58:14.509Z,15.30
2018-09-24T10:00:48.458Z,15.50
2018-09-24T10:03:22.318Z,15.50
2018-09-24T10:05:56.094Z,15.50
2018-09-24T10:08:29.764Z,15.60
2018-09-24T10:11:03.462Z,15.90
2018-09-24T10:13:37.202Z,16.10
2018-09-24T10:16:11.024Z,16.20
2018-09-24T10:18:44.842Z,16.00
2018-09-24T10:21:18.763Z,15.70
2018-09-24T10:23:52.553Z,15.70
2018-09-24T10:26:26.975Z,15.50
2018-09-24T10:29:01.426Z,15.10
2018-09-24T10:31:35.458Z,14.70
2018-09-24T10:34:09.216Z,14.30
2018-09-24T10:36:43.019Z,14.20
2018-09-24T10:39:17.317Z,14.00
2018-09-24T10:41:51.338Z,13.80
2018-09-24T10:44:25.909Z,13.80
2018-09-24T10:46:59.715Z,13.70
2018-09-24T10:49:33.451Z,13.50
2018-09-24T10:52:07.472Z,13.50
2018-09-24T10:54:41.108Z,13.40
2018-09-24T10:57:14.786Z,13.40
2018-09-24T10:59:48.554Z,13.30
2018-09-24T11:02:22.357Z,13.20
2018-09-24T11:04:56.336Z,13.20
2018-09-24T11:07:30.105Z,13.40
2018-09-24T11:10:03.983Z,13.60
2018-09-24T11:12:37.891Z,13.80
2018-09-24T11:15:11.826Z,13.90
2018-09-24T11:17:46.043Z,14.00
2018-09-24T11:20:20.256Z,14.10
2018-09-24T11:22:54.074Z,14.20
2018-09-24T11:25:27.823Z,14.30
2018-09-24T11:28:02.050Z,14.30
2018-09-24T11:30:35.866Z,14.30
2018-09-24T11:33:10.277Z,14.40
2018-09-24T11:35:44.343Z,14.50
2018-09-24T11:38:18.290Z,14.50
2018-09-24T11:40:52.008Z,14.60
2018-09-24T11:43:25.948Z,14.70
2018-09-24T11:45:59.691Z,14.80
2018-09-24T11:48:33.633Z,14.90
2018-09-24T11:51:07.588Z,15.20
2018-09-24T11:53:42.335Z,15.30
2018-09-24T11:56:16.579Z,15.30
2018-09-24T11:58:50.339Z,15.30
2018-09-24T12:01:24.087Z,15.20
2018-09-24T12:03:58.114Z,15.20
2018-09-24T12:06:31.857Z,15.30
2018-09-24T12:09:06.003Z,15.40
2018-09-24T12:11:39.747Z,15.40
2018-09-24T12:14:13.661Z,15.40
2018-09-24T12:16:47.631Z,15.50
2018-09-24T12:19:21.267Z,15.50
2018-09-24T12:21:55.010Z,15.50
2018-09-24T12:24:28.843Z,15.70
2018-09-24T12:27:02.664Z,15.70
2018-09-24T12:29:36.483Z,15.50
2018-09-24T12:32:10.431Z,15.30
2018-09-24T12:34:44.866Z,15.00
2018-09-24T12:37:18.770Z,14.90
2018-09-24T12:39:52.633Z,14.80
2018-09-24T12:42:26.376Z,14.80
2018-09-24T12:45:00.104Z,14.60
2018-09-24T12:47:34.063Z,14.50
2018-09-24T12:50:07.958Z,14.40
2018-09-24T12:52:41.736Z,14.30
2018-09-24T12:55:16.024Z,14.20
2018-09-24T12:57:49.980Z,14.30
2018-09-24T13:00:23.875Z,14.30
2018-09-24T13:02:57.783Z,14.20
2018-09-24T13:05:31.640Z,14.10
2018-09-24T13:08:05.359Z,13.90
2018-09-24T13:10:39.898Z,13.80
2018-09-24T13:13:13.979Z,13.60
2018-09-24T13:15:47.819Z,13.50
2018-09-24T13:18:21.670Z,13.40
2018-09-24T13:20:55.622Z,13.40
2018-09-24T13:23:29.580Z,13.40
2018-09-24T13:26:03.407Z,13.50
2018-09-24T13:28:38.138Z,13.50
2018-09-24T13:31:12.065Z,13.60
2018-09-24T13:33:45.763Z,13.70
2018-09-24T13:36:19.483Z,13.70
2018-09-24T13:38:53.636Z,13.80
2018-09-24T13:41:27.539Z,13.80
2018-09-24T13:44:01.506Z,13.90
2018-09-24T13:46:35.359Z,14.00
2018-09-24T13:49:09.091Z,14.20
2018-09-24T13:51:42.961Z,14.40
2018-09-24T13:54:16.873Z,14.50
2018-09-24T13:56:50.885Z,14.50
2018-09-24T13:59:24.861Z,14.50
2018-09-24T14:01:58.701Z,14.40
2018-09-24T14:04:32.446Z,14.30
2018-09-24T14:07:06.326Z,14.20
2018-09-24T14:09:40.169Z,14.00
2018-09-24T14:12:13.985Z,13.90
2018-09-24T14:14:47.712Z,13.90
2018-09-24T14:17:21.835Z,13.80
2018-09-24T14:19:55.630Z,13.80
2018-09-24T14:22:30.107Z,13.80
2018-09-24T14:25:04.036Z,13.80
2018-09-24T14:27:37.706Z,13.90
2018-09-24T14:30:11.865Z,14.00
2018-09-24T14:32:45.810Z,14.00
2018-09-24T14:35:19.641Z,14.20
2018-09-24T14:37:53.406Z,14.40
2018-09-24T14:40:27.177Z,14.60
2018-09-24T14:43:01.040Z,14.60
2018-09-24T14:45:35.006Z,14.50
2018-09-24T14:48:08.855Z,14.40
2018-09-24T14:50:42.673Z,14.40
2018-09-24T14:53:16.379Z,14.30
2018-09-24T14:55:50.225Z,14.10
2018-09-24T14:58:23.868Z,14.10
2018-09-24T15:00:57.760Z,14.10
2018-09-24T15:03:31.487Z,14.10
2018-09-24T15:06:05.470Z,14.20
2018-09-24T15:08:39.788Z,14.00
2018-09-24T15:11:13.607Z,14.00
2018-09-24T15:13:48.051Z,14.00
2018-09-24T15:16:21.976Z,13.90
2018-09-24T15:19:02.792Z,13.90
2018-09-24T15:21:36.766Z,13.80
2018-09-24T15:24:10.680Z,13.60
2018-09-24T15:26:45.390Z,13.50
2018-09-24T15:29:19.828Z,13.50
2018-09-24T15:31:54.044Z,13.50
2018-09-24T15:34:27.889Z,13.40
2018-09-24T15:37:01.960Z,13.30
2018-09-24T15:39:35.896Z,13.30
2018-09-24T15:42:09.761Z,13.30
2018-09-24T15:44:43.522Z,13.30
2018-09-24T15:47:17.527Z,13.30
2018-09-24T15:49:51.359Z,13.30
2018-09-24T15:52:25.143Z,13.30
2018-09-24T15:54:58.929Z,13.20
2018-09-24T15:57:32.837Z,13.20
2018-09-24T16:00:06.880Z,13.20
2018-09-24T16:02:40.780Z,13.20
2018-09-24T16:05:14.816Z,13.30
2018-09-24T16:07:48.789Z,13.30
2018-09-24T16:10:23.007Z,13.30
2018-09-24T16:12:56.783Z,13.20
2018-09-24T16:15:30.747Z,13.10
2018-09-24T16:18:04.567Z,13.10
2018-09-24T16:20:39.232Z,13.20
2018-09-24T16:23:13.478Z,13.10
2018-09-24T16:25:47.139Z,13.20
2018-09-24T16:28:21.182Z,13.10
2018-09-24T16:30:54.943Z,13.10
2018-09-24T16:33:28.894Z,13.20
2018-09-24T16:36:02.910Z,13.10
2018-09-24T16:38:37.311Z,13.10
2018-09-24T16:41:11.154Z,12.90
2018-09-24T16:43:45.298Z,12.90
2018-09-24T16:46:19.350Z,12.90
2018-09-24T16:48:53.622Z,12.80
2018-09-24T16:51:27.534Z,12.70
2018-09-24T16:54:01.553Z,12.60
2018-09-24T16:56:35.375Z,12.60
2018-09-24T16:59:09.330Z,12.50
2018-09-24T17:01:43.989Z,12.40
2018-09-24T17:04:17.928Z,12.40
2018-09-24T17:06:52.382Z,12.40
2018-09-24T17:09:26.585Z,12.40
2018-09-24T17:12:00.590Z,12.40
2018-09-24T17:14:34.550Z,12.30
2018-09-24T17:17:09.248Z,12.20
2018-09-24T17:19:43.748Z,12.20
2018-09-24T17:22:18.268Z,12.20
2018-09-24T17:24:52.831Z,12.20
2018-09-24T17:27:26.978Z,12.20
2018-09-24T17:30:00.673Z,12.10
2018-09-24T17:32:34.652Z,12.10
2018-09-24T17:35:08.573Z,12.00
2018-09-24T17:37:43.146Z,12.00
2018-09-24T17:40:17.716Z,11.90
2018-09-24T17:42:51.683Z,12.00
2018-09-24T17:45:25.710Z,12.00
2018-09-24T17:47:59.746Z,12.00
2018-09-24T17:50:33.914Z,12.10
2018-09-24T17:53:07.743Z,12.10
2018-09-24T17:55:41.655Z,12.00
2018-09-24T17:58:15.585Z,12.00
2018-09-24T18:00:49.331Z,12.00
2018-09-24T18:03:23.283Z,12.00
2018-09-24T18:05:57.257Z,11.90
2018-09-24T18:08:31.401Z,11.90
2018-09-24T18:11:05.444Z,11.80
2018-09-24T18:13:39.299Z,11.70
2018-09-24T18:16:13.180Z,11.60
2018-09-24T18:18:47.136Z,11.60
2018-09-24T18:21:20.987Z,11.60
2018-09-24T18:23:54.986Z,11.50
2018-09-24T18:26:29.043Z,11.40
2018-09-24T18:29:03.129Z,11.30
2018-09-24T18:31:37.139Z,11.40
2018-09-24T18:34:11.023Z,11.30
2018-09-24T18:36:45.601Z,11.20
2018-09-24T18:39:19.715Z,11.20
2018-09-24T18:41:53.573Z,11.20
2018-09-24T18:44:27.478Z,11.20
2018-09-24T18:47:01.248Z,11.20
2018-09-24T18:49:34.991Z,11.20
2018-09-24T18:52:09.128Z,11.20
2018-09-24T18:54:43.073Z,11.20
2018-09-24T18:57:17.071Z,11.20
2018-09-24T18:59:51.005Z,11.20
2018-09-24T19:02:24.749Z,11.10
2018-09-24T19:04:58.758Z,11.00
2018-09-24T19:07:32.503Z,10.90
2018-09-24T19:10:06.342Z,10.80
2018-09-24T19:12:40.262Z,10.80
2018-09-24T19:15:15.446Z,10.70
2018-09-24T19:17:49.277Z,10.60
2018-09-24T19:20:23.381Z,10.50
2018-09-24T19:22:57.287Z,10.50
2018-09-24T19:25:31.499Z,10.40
2018-09-24T19:28:05.584Z,10.40
2018-09-24T19:30:39.450Z,10.40
2018-09-24T19:33:14.009Z,10.30
2018-09-24T19:35:47.991Z,10.30
2018-09-24T19:38:21.749Z,10.30
2018-09-24T19:40:55.564Z,10.30
2018-09-24T19:43:29.954Z,10.30
2018-09-24T19:46:03.773Z,10.30
2018-09-24T19:48:38.105Z,10.30
2018-09-24T19:51:12.200Z,10.30
2018-09-24T19:53:46.244Z,10.30
2018-09-24T19:56:20.388Z,10.20
2018-09-24T19:58:54.286Z,10.10
2018-09-24T20:01:28.261Z,10.00
2018-09-24T20:04:02.503Z,10.00
2018-09-24T20:06:36.346Z,9.90
2018-09-24T20:09:13.244Z,10.00
2018-09-24T20:11:46.920Z,10.10
2018-09-24T20:14:20.829Z,10.20
2018-09-24T20:16:54.993Z,10.20
2018-09-24T20:19:28.947Z,10.20
2018-09-24T20:22:02.730Z,10.30
2018-09-24T20:24:36.600Z,10.40
2018-09-24T20:27:11.620Z,10.40
2018-09-24T20:29:46.312Z,10.40
2018-09-24T20:32:20.647Z,10.40
2018-09-24T20:34:54.535Z,10.50
2018-09-24T20:37:28.409Z,10.60
2018-09-24T20:40:02.193Z,10.50
2018-09-24T20:42:35.860Z,10.60
2018-09-24T20:45:09.963Z,10.40
2018-09-24T20:47:43.702Z,10.40
2018-09-24T20:50:18.077Z,10.40
2018-09-24T20:52:52.036Z,10.40
2018-09-24T20:55:25.960Z,10.40
2018-09-24T20:57:59.710Z,10.30
2018-09-24T21:00:34.236Z,10.20
2018-09-24T21:03:08.131Z,10.10
2018-09-24T21:05:42.104Z,10.20
2018-09-24T21:08:15.903Z,10.20
2018-09-24T21:10:49.872Z,10.20
2018-09-24T21:13:23.687Z,10.30
2018-09-24T21:15:57.639Z,10.20
2018-09-24T21:18:31.727Z,10.30
2018-09-24T21:21:05.745Z,10.30
2018-09-24T21:23:39.767Z,10.40
2018-09-24T21:26:14.039Z,10.30
2018-09-24T21:28:48.318Z,10.30
2018-09-24T21:31:22.254Z,10.30
2018-09-24T21:33:56.290Z,10.30
2018-09-24T21:36:30.250Z,10.30
2018-09-24T21:39:04.303Z,10.40
2018-09-24T21:41:38.060Z,10.40
2018-09-24T21:44:11.946Z,10.50
2018-09-24T21:46:45.654Z,10.40
2018-09-24T21:49:19.675Z,10.50
2018-09-24T21:51:53.542Z,10.40
2018-09-24T21:54:27.492Z,10.50
2018-09-24T21:57:01.667Z,10.60
2018-09-24T21:59:35.588Z,10.60
2018-09-24T22:02:09.728Z,10.60
2018-09-24T22:04:43.723Z,10.60
2018-09-24T22:07:17.632Z,10.60
2018-09-24T22:09:52.204Z,10.60
2018-09-24T22:12:26.328Z,10.60
2018-09-24T22:15:00.021Z,10.60
2018-09-24T22:17:33.963Z,10.60
2018-09-24T22:20:07.884Z,10.60
2018-09-24T22:22:41.752Z,10.50
2018-09-24T22:25:15.866Z,10.50
2018-09-24T22:27:49.635Z,10.50
2018-09-24T22:30:23.571Z,10.40
2018-09-24T22:32:57.413Z,10.40
2018-09-24T22:35:32.357Z,10.30
2018-09-24T22:38:06.232Z,10.30
2018-09-24T22:40:40.182Z,10.30
2018-09-24T22:43:14.164Z,10.30
2018-09-24T22:45:48.220Z,10.20
2018-09-24T22:48:22.075Z,10.20
2018-09-24T22:50:56.080Z,10.20
2018-09-24T22:53:29.865Z,10.10
2018-09-24T22:56:03.624Z,10.10
2018-09-24T22:58:37.794Z,10.00
2018-09-24T23:01:11.756Z,9.90
2018-09-24T23:03:45.806Z,9.90
2018-09-24T23:06:19.747Z,9.80
2018-09-24T23:08:53.704Z,9.60
2018-09-24T23:11:27.436Z,9.60
2018-09-24T23:14:01.278Z,9.60
2018-09-24T23:16:35.267Z,9.60
2018-09-24T23:19:09.197Z,9.70
2018-09-24T23:21:42.927Z,9.70
2018-09-24T23:24:16.811Z,9.80
2018-09-24T23:26:50.647Z,9.70
2018-09-24T23:29:24.409Z,9.70
2018-09-24T23:31:58.344Z,9.70
2018-09-24T23:34:32.089Z,9.70
2018-09-24T23:37:05.768Z,9.70
2018-09-24T23:39:40.275Z,9.60
2018-09-24T23:42:14.105Z,9.50
2018-09-24T23:44:48.032Z,9.60
2018-09-24T23:47:21.881Z,9.50
2018-09-24T23:49:55.908Z,9.40
2018-09-24T23:52:29.692Z,9.30
2018-09-24T23:55:03.633Z,9.30
2018-09-24T23:57:37.479Z,9.20
